sensor_id;sensor_type;location;lat;lon;timestamp;pressure;altitude;pressure_sealevel;temperature;humidity
7407;BME280;3745;56.964;24.128;2023-05-20T00:00:48;103056.06;;;10.46;100.00
7407;BME280;3745;56.964;24.128;2023-05-20T00:03:15;103075.00;;;10.54;100.00
7407;BME280;3745;56.964;24.128;2023-05-20T00:05:40;103069.94;;;10.54;100.00
7407;BME280;3745;56.964;24.128;2023-05-20T00:08:06;103079.78;;;10.48;100.00
7407;BME280;3745;56.964;24.128;2023-05-20T00:10:37;103044.66;;;10.21;100.00
7407;BME280;3745;56.964;24.128;2023-05-20T00:13:03;103059.31;;;10.27;100.00
7407;BME280;3745;56.964;24.128;2023-05-20T00:15:28;103077.56;;;10.38;100.00
7407;BME280;3745;56.964;24.128;2023-05-20T00:17:55;103001.19;;;9.96;100.00
7407;BME280;3745;56.964;24.128;2023-05-20T00:20:21;103084.53;;;10.42;100.00
7407;BME280;3745;56.964;24.128;2023-05-20T00:22:46;103083.81;;;10.44;100.00
7407;BME280;3745;56.964;24.128;2023-05-20T00:25:12;103082.47;;;10.34;100.00
7407;BME280;3745;56.964;24.128;2023-05-20T00:27:41;103092.75;;;10.38;100.00
7407;BME280;3745;56.964;24.128;2023-05-20T00:30:07;103040.22;;;10.01;100.00
7407;BME280;3745;56.964;24.128;2023-05-20T00:32:33;103081.84;;;10.22;100.00
7407;BME280;3745;56.964;24.128;2023-05-20T00:34:59;103073.69;;;10.12;100.00
7407;BME280;3745;56.964;24.128;2023-05-20T00:37:26;103100.03;;;10.15;100.00
7407;BME280;3745;56.964;24.128;2023-05-20T00:39:51;103098.09;;;10.11;100.00
7407;BME280;3745;56.964;24.128;2023-05-20T00:42:24;103087.66;;;10.05;100.00
7407;BME280;3745;56.964;24.128;2023-05-20T00:44:51;103030.09;;;9.69;100.00
7407;BME280;3745;56.964;24.128;2023-05-20T00:47:17;103097.47;;;9.99;100.00
7407;BME280;3745;56.964;24.128;2023-05-20T00:49:44;103031.66;;;9.67;100.00
7407;BME280;3745;56.964;24.128;2023-05-20T00:52:11;103088.03;;;9.97;100.00
7407;BME280;3745;56.964;24.128;2023-05-20T00:54:39;103102.84;;;10.05;100.00
7407;BME280;3745;56.964;24.128;2023-05-20T00:57:06;103094.94;;;9.99;100.00
7407;BME280;3745;56.964;24.128;2023-05-20T00:59:35;103106.72;;;9.99;100.00
7407;BME280;3745;56.964;24.128;2023-05-20T01:02:02;103085.28;;;9.92;100.00
7407;BME280;3745;56.964;24.128;2023-05-20T01:04:29;103097.31;;;9.96;100.00
7407;BME280;3745;56.964;24.128;2023-05-20T01:06:56;103104.25;;;10.00;100.00
7407;BME280;3745;56.964;24.128;2023-05-20T01:09:25;103092.94;;;9.94;100.00
7407;BME280;3745;56.964;24.128;2023-05-20T01:12:19;103104.81;;;9.95;100.00
7407;BME280;3745;56.964;24.128;2023-05-20T01:14:55;103107.09;;;9.90;100.00
7407;BME280;3745;56.964;24.128;2023-05-20T01:17:25;103113.72;;;9.88;100.00
7407;BME280;3745;56.964;24.128;2023-05-20T01:19:53;103092.13;;;9.78;100.00
7407;BME280;3745;56.964;24.128;2023-05-20T01:22:24;103105.03;;;9.83;100.00
7407;BME280;3745;56.964;24.128;2023-05-20T01:24:49;103071.47;;;9.55;100.00
7407;BME280;3745;56.964;24.128;2023-05-20T01:27:19;103108.16;;;9.79;100.00
7407;BME280;3745;56.964;24.128;2023-05-20T01:29:45;103099.16;;;9.68;100.00
7407;BME280;3745;56.964;24.128;2023-05-20T01:32:32;103064.00;;;9.42;100.00
7407;BME280;3745;56.964;24.128;2023-05-20T01:34:59;103104.91;;;9.65;100.00
7407;BME280;3745;56.964;24.128;2023-05-20T01:37:26;103102.28;;;9.64;100.00
7407;BME280;3745;56.964;24.128;2023-05-20T01:39:53;103079.50;;;9.48;100.00
7407;BME280;3745;56.964;24.128;2023-05-20T01:42:21;103108.94;;;9.62;100.00
7407;BME280;3745;56.964;24.128;2023-05-20T01:44:47;103067.78;;;9.34;100.00
7407;BME280;3745;56.964;24.128;2023-05-20T01:47:12;103107.91;;;9.58;100.00
7407;BME280;3745;56.964;24.128;2023-05-20T01:49:38;103059.25;;;9.32;100.00
7407;BME280;3745;56.964;24.128;2023-05-20T01:52:04;103107.19;;;9.61;100.00
7407;BME280;3745;56.964;24.128;2023-05-20T01:54:30;103086.56;;;9.53;100.00
7407;BME280;3745;56.964;24.128;2023-05-20T01:56:55;103078.28;;;9.56;100.00
7407;BME280;3745;56.964;24.128;2023-05-20T01:59:21;103089.03;;;9.68;100.00
7407;BME280;3745;56.964;24.128;2023-05-20T02:01:46;103088.78;;;9.63;100.00
7407;BME280;3745;56.964;24.128;2023-05-20T02:04:12;103090.25;;;9.60;100.00
7407;BME280;3745;56.964;24.128;2023-05-20T02:06:37;103109.25;;;9.68;100.00
7407;BME280;3745;56.964;24.128;2023-05-20T02:09:04;103070.81;;;9.43;100.00
7407;BME280;3745;56.964;24.128;2023-05-20T02:11:30;103080.53;;;9.51;100.00
7407;BME280;3745;56.964;24.128;2023-05-20T02:13:55;103084.88;;;9.54;100.00
7407;BME280;3745;56.964;24.128;2023-05-20T02:16:21;103058.78;;;9.39;100.00
7407;BME280;3745;56.964;24.128;2023-05-20T02:18:47;103107.69;;;9.70;100.00
7407;BME280;3745;56.964;24.128;2023-05-20T02:21:12;103097.25;;;9.64;100.00
7407;BME280;3745;56.964;24.128;2023-05-20T02:23:38;103043.44;;;9.36;100.00
7407;BME280;3745;56.964;24.128;2023-05-20T02:26:04;103088.72;;;9.62;100.00
7407;BME280;3745;56.964;24.128;2023-05-20T02:28:29;103105.25;;;9.71;100.00
7407;BME280;3745;56.964;24.128;2023-05-20T02:30:55;103086.69;;;9.71;100.00
7407;BME280;3745;56.964;24.128;2023-05-20T02:33:20;103097.91;;;9.76;100.00
7407;BME280;3745;56.964;24.128;2023-05-20T02:35:46;103035.59;;;9.46;100.00
7407;BME280;3745;56.964;24.128;2023-05-20T02:38:12;103094.75;;;9.80;100.00
7407;BME280;3745;56.964;24.128;2023-05-20T02:40:38;103111.50;;;9.94;100.00
7407;BME280;3745;56.964;24.128;2023-05-20T02:43:04;103103.75;;;9.91;100.00
7407;BME280;3745;56.964;24.128;2023-05-20T02:45:29;103114.38;;;10.00;100.00
7407;BME280;3745;56.964;24.128;2023-05-20T02:47:55;103073.94;;;9.69;100.00
7407;BME280;3745;56.964;24.128;2023-05-20T02:50:21;103111.63;;;9.96;100.00
7407;BME280;3745;56.964;24.128;2023-05-20T02:52:46;103128.06;;;10.04;100.00
7407;BME280;3745;56.964;24.128;2023-05-20T02:55:12;103048.88;;;9.58;100.00
7407;BME280;3745;56.964;24.128;2023-05-20T02:57:38;103112.50;;;9.96;100.00
7407;BME280;3745;56.964;24.128;2023-05-20T03:00:07;103134.03;;;10.20;100.00
7407;BME280;3745;56.964;24.128;2023-05-20T03:02:37;103132.78;;;10.28;100.00
7407;BME280;3745;56.964;24.128;2023-05-20T03:05:03;103125.03;;;10.25;100.00
7407;BME280;3745;56.964;24.128;2023-05-20T03:07:32;103109.28;;;10.31;100.00
7407;BME280;3745;56.964;24.128;2023-05-20T03:09:58;103111.59;;;10.43;100.00
7407;BME280;3745;56.964;24.128;2023-05-20T03:12:24;103124.53;;;10.65;100.00
7407;BME280;3745;56.964;24.128;2023-05-20T03:14:51;103131.78;;;10.75;100.00
7407;BME280;3745;56.964;24.128;2023-05-20T03:17:20;103075.16;;;10.57;100.00
7407;BME280;3745;56.964;24.128;2023-05-20T03:19:46;103120.34;;;10.99;100.00
7407;BME280;3745;56.964;24.128;2023-05-20T03:22:11;103126.97;;;11.13;100.00
7407;BME280;3745;56.964;24.128;2023-05-20T03:24:37;103119.91;;;11.08;100.00
7407;BME280;3745;56.964;24.128;2023-05-20T03:27:03;103107.78;;;11.18;100.00
7407;BME280;3745;56.964;24.128;2023-05-20T03:29:29;103132.25;;;11.35;100.00
7407;BME280;3745;56.964;24.128;2023-05-20T03:31:55;103115.22;;;11.33;100.00
7407;BME280;3745;56.964;24.128;2023-05-20T03:34:21;103124.94;;;11.41;100.00
7407;BME280;3745;56.964;24.128;2023-05-20T03:36:46;103130.56;;;11.54;100.00
7407;BME280;3745;56.964;24.128;2023-05-20T03:39:12;103127.69;;;11.64;100.00
7407;BME280;3745;56.964;24.128;2023-05-20T03:41:37;103129.88;;;11.74;100.00
7407;BME280;3745;56.964;24.128;2023-05-20T03:44:03;103103.50;;;11.70;100.00
7407;BME280;3745;56.964;24.128;2023-05-20T03:46:29;103125.78;;;11.95;100.00
7407;BME280;3745;56.964;24.128;2023-05-20T03:48:56;103121.63;;;11.97;100.00
7407;BME280;3745;56.964;24.128;2023-05-20T03:51:22;103124.84;;;12.12;100.00
7407;BME280;3745;56.964;24.128;2023-05-20T03:53:47;103131.94;;;12.19;100.00
7407;BME280;3745;56.964;24.128;2023-05-20T03:56:13;103078.63;;;12.00;100.00
7407;BME280;3745;56.964;24.128;2023-05-20T03:58:38;103105.25;;;12.27;100.00
7407;BME280;3745;56.964;24.128;2023-05-20T04:01:04;103131.44;;;12.45;100.00
7407;BME280;3745;56.964;24.128;2023-05-20T04:03:29;103131.94;;;12.58;100.00
7407;BME280;3745;56.964;24.128;2023-05-20T04:05:55;103095.75;;;12.42;100.00
7407;BME280;3745;56.964;24.128;2023-05-20T04:08:21;103143.13;;;12.82;100.00
7407;BME280;3745;56.964;24.128;2023-05-20T04:10:54;103145.81;;;12.85;100.00
7407;BME280;3745;56.964;24.128;2023-05-20T04:13:19;103114.09;;;12.77;100.00
7407;BME280;3745;56.964;24.128;2023-05-20T04:15:46;103140.69;;;13.04;100.00
7407;BME280;3745;56.964;24.128;2023-05-20T04:18:12;103109.94;;;12.98;100.00
7407;BME280;3745;56.964;24.128;2023-05-20T04:20:38;103110.59;;;13.13;100.00
7407;BME280;3745;56.964;24.128;2023-05-20T04:23:06;103141.94;;;13.34;100.00
7407;BME280;3745;56.964;24.128;2023-05-20T04:25:31;103121.25;;;13.25;100.00
7407;BME280;3745;56.964;24.128;2023-05-20T04:27:58;103100.94;;;13.27;100.00
7407;BME280;3745;56.964;24.128;2023-05-20T04:30:24;103143.19;;;13.44;100.00
7407;BME280;3745;56.964;24.128;2023-05-20T04:32:50;103146.38;;;13.61;100.00
7407;BME280;3745;56.964;24.128;2023-05-20T04:35:16;103132.97;;;13.65;100.00
7407;BME280;3745;56.964;24.128;2023-05-20T04:37:42;103101.09;;;13.52;100.00
7407;BME280;3745;56.964;24.128;2023-05-20T04:40:12;103129.66;;;13.89;100.00
7407;BME280;3745;56.964;24.128;2023-05-20T04:42:37;103155.72;;;14.06;100.00
7407;BME280;3745;56.964;24.128;2023-05-20T04:45:04;103162.00;;;14.14;100.00
7407;BME280;3745;56.964;24.128;2023-05-20T04:47:30;103156.69;;;14.32;100.00
7407;BME280;3745;56.964;24.128;2023-05-20T04:50:05;103123.53;;;14.30;100.00
7407;BME280;3745;56.964;24.128;2023-05-20T04:52:33;103153.56;;;14.62;100.00
7407;BME280;3745;56.964;24.128;2023-05-20T04:54:58;103128.78;;;14.58;100.00
7407;BME280;3745;56.964;24.128;2023-05-20T04:57:26;103131.25;;;14.81;100.00
7407;BME280;3745;56.964;24.128;2023-05-20T04:59:51;103157.63;;;15.06;100.00
7407;BME280;3745;56.964;24.128;2023-05-20T05:02:17;103133.59;;;15.00;100.00
7407;BME280;3745;56.964;24.128;2023-05-20T05:04:42;103151.47;;;15.27;100.00
7407;BME280;3745;56.964;24.128;2023-05-20T05:07:08;103136.63;;;15.15;100.00
7407;BME280;3745;56.964;24.128;2023-05-20T05:09:33;103158.22;;;15.25;100.00
7407;BME280;3745;56.964;24.128;2023-05-20T05:11:59;103153.63;;;15.41;100.00
7407;BME280;3745;56.964;24.128;2023-05-20T05:14:25;103158.16;;;15.48;100.00
7407;BME280;3745;56.964;24.128;2023-05-20T05:16:51;103144.16;;;15.37;100.00
7407;BME280;3745;56.964;24.128;2023-05-20T05:19:16;103089.91;;;15.44;100.00
7407;BME280;3745;56.964;24.128;2023-05-20T05:21:43;103152.88;;;15.99;100.00
7407;BME280;3745;56.964;24.128;2023-05-20T05:24:08;103132.19;;;15.90;100.00
7407;BME280;3745;56.964;24.128;2023-05-20T05:26:34;103151.75;;;16.19;100.00
7407;BME280;3745;56.964;24.128;2023-05-20T05:28:59;103126.00;;;16.13;100.00
7407;BME280;3745;56.964;24.128;2023-05-20T05:31:25;103143.94;;;16.44;100.00
7407;BME280;3745;56.964;24.128;2023-05-20T05:33:50;103138.09;;;16.50;100.00
7407;BME280;3745;56.964;24.128;2023-05-20T05:36:16;103154.03;;;16.69;100.00
7407;BME280;3745;56.964;24.128;2023-05-20T05:38:42;103131.00;;;16.69;100.00
7407;BME280;3745;56.964;24.128;2023-05-20T05:41:08;103151.38;;;16.99;100.00
7407;BME280;3745;56.964;24.128;2023-05-20T05:43:34;103160.72;;;16.99;100.00
7407;BME280;3745;56.964;24.128;2023-05-20T05:45:59;103152.44;;;17.09;100.00
7407;BME280;3745;56.964;24.128;2023-05-20T05:48:25;103143.75;;;17.01;100.00
7407;BME280;3745;56.964;24.128;2023-05-20T05:50:50;103122.13;;;16.90;100.00
7407;BME280;3745;56.964;24.128;2023-05-20T05:53:16;103162.75;;;17.12;100.00
7407;BME280;3745;56.964;24.128;2023-05-20T05:55:42;103150.88;;;17.14;100.00
7407;BME280;3745;56.964;24.128;2023-05-20T05:58:07;103140.56;;;17.11;100.00
7407;BME280;3745;56.964;24.128;2023-05-20T06:00:33;103147.63;;;17.21;100.00
7407;BME280;3745;56.964;24.128;2023-05-20T06:02:58;103154.38;;;17.17;100.00
7407;BME280;3745;56.964;24.128;2023-05-20T06:05:24;103162.69;;;17.09;100.00
7407;BME280;3745;56.964;24.128;2023-05-20T06:07:49;103164.50;;;17.13;100.00
7407;BME280;3745;56.964;24.128;2023-05-20T06:10:15;103163.13;;;17.27;100.00
7407;BME280;3745;56.964;24.128;2023-05-20T06:12:40;103084.63;;;16.90;100.00
7407;BME280;3745;56.964;24.128;2023-05-20T06:15:06;103169.34;;;17.38;100.00
7407;BME280;3745;56.964;24.128;2023-05-20T06:17:32;103168.81;;;17.51;100.00
7407;BME280;3745;56.964;24.128;2023-05-20T06:19:58;103163.50;;;17.42;100.00
7407;BME280;3745;56.964;24.128;2023-05-20T06:22:24;103155.00;;;17.43;100.00
7407;BME280;3745;56.964;24.128;2023-05-20T06:24:50;103169.00;;;17.57;100.00
7407;BME280;3745;56.964;24.128;2023-05-20T06:27:15;103161.44;;;17.62;100.00
7407;BME280;3745;56.964;24.128;2023-05-20T06:29:41;103161.75;;;17.77;100.00
7407;BME280;3745;56.964;24.128;2023-05-20T06:32:07;103161.09;;;17.85;100.00
7407;BME280;3745;56.964;24.128;2023-05-20T06:34:32;103165.59;;;17.97;100.00
7407;BME280;3745;56.964;24.128;2023-05-20T06:36:58;103162.22;;;18.00;98.71
7407;BME280;3745;56.964;24.128;2023-05-20T06:39:24;103125.28;;;17.88;100.00
7407;BME280;3745;56.964;24.128;2023-05-20T06:41:49;103106.41;;;17.83;99.54
7407;BME280;3745;56.964;24.128;2023-05-20T06:44:17;103132.44;;;18.05;99.43
7407;BME280;3745;56.964;24.128;2023-05-20T06:46:43;103159.56;;;18.37;98.61
7407;BME280;3745;56.964;24.128;2023-05-20T06:49:08;103140.50;;;18.23;96.98
7407;BME280;3745;56.964;24.128;2023-05-20T06:51:34;103134.84;;;18.39;95.64
7407;BME280;3745;56.964;24.128;2023-05-20T06:54:00;103125.94;;;18.22;99.13
7407;BME280;3745;56.964;24.128;2023-05-20T06:56:25;103116.03;;;18.40;95.78
7407;BME280;3745;56.964;24.128;2023-05-20T06:58:51;103138.28;;;18.41;95.10
7407;BME280;3745;56.964;24.128;2023-05-20T07:01:17;103114.38;;;18.42;94.70
7407;BME280;3745;56.964;24.128;2023-05-20T07:03:42;103140.50;;;18.66;95.06
7407;BME280;3745;56.964;24.128;2023-05-20T07:06:09;103138.91;;;18.74;95.19
7407;BME280;3745;56.964;24.128;2023-05-20T07:08:35;103105.50;;;18.70;92.88
7407;BME280;3745;56.964;24.128;2023-05-20T07:11:02;103090.78;;;18.61;92.23
7407;BME280;3745;56.964;24.128;2023-05-20T07:13:28;103142.66;;;18.91;90.81
7407;BME280;3745;56.964;24.128;2023-05-20T07:15:54;103141.00;;;18.97;91.05
7407;BME280;3745;56.964;24.128;2023-05-20T07:18:19;103121.34;;;18.97;90.63
7407;BME280;3745;56.964;24.128;2023-05-20T07:20:45;103095.59;;;18.92;91.22
7407;BME280;3745;56.964;24.128;2023-05-20T07:23:11;103101.72;;;19.01;90.75
7407;BME280;3745;56.964;24.128;2023-05-20T07:25:36;103120.66;;;19.09;90.06
7407;BME280;3745;56.964;24.128;2023-05-20T07:28:02;103130.38;;;19.29;89.30
7407;BME280;3745;56.964;24.128;2023-05-20T07:30:28;103126.06;;;19.27;90.14
7407;BME280;3745;56.964;24.128;2023-05-20T07:32:53;103064.13;;;19.06;92.13
7407;BME280;3745;56.964;24.128;2023-05-20T07:35:19;103107.47;;;19.40;87.04
7407;BME280;3745;56.964;24.128;2023-05-20T07:37:44;103109.00;;;19.32;87.77
7407;BME280;3745;56.964;24.128;2023-05-20T07:40:10;103113.53;;;19.43;88.36
7407;BME280;3745;56.964;24.128;2023-05-20T07:42:36;103126.66;;;19.66;87.72
7407;BME280;3745;56.964;24.128;2023-05-20T07:45:02;103127.56;;;19.68;87.37
7407;BME280;3745;56.964;24.128;2023-05-20T07:47:27;103097.44;;;19.58;88.56
7407;BME280;3745;56.964;24.128;2023-05-20T07:49:53;103101.00;;;19.69;87.61
7407;BME280;3745;56.964;24.128;2023-05-20T07:52:19;103064.97;;;19.66;86.76
7407;BME280;3745;56.964;24.128;2023-05-20T07:54:46;103065.66;;;19.52;88.37
7407;BME280;3745;56.964;24.128;2023-05-20T07:57:11;103126.09;;;19.87;89.52
7407;BME280;3745;56.964;24.128;2023-05-20T07:59:37;103121.84;;;19.93;89.92
7407;BME280;3745;56.964;24.128;2023-05-20T08:02:03;103108.19;;;19.97;87.53
7407;BME280;3745;56.964;24.128;2023-05-20T08:04:29;103112.94;;;19.66;87.85
7407;BME280;3745;56.964;24.128;2023-05-20T08:06:55;103116.53;;;19.78;89.31
7407;BME280;3745;56.964;24.128;2023-05-20T08:09:20;103113.16;;;19.82;85.25
7407;BME280;3745;56.964;24.128;2023-05-20T08:11:46;103066.72;;;19.67;86.29
7407;BME280;3745;56.964;24.128;2023-05-20T08:14:12;103087.56;;;19.91;83.56
7407;BME280;3745;56.964;24.128;2023-05-20T08:16:37;103033.28;;;19.66;81.99
7407;BME280;3745;56.964;24.128;2023-05-20T08:19:03;103101.44;;;20.02;80.84
7407;BME280;3745;56.964;24.128;2023-05-20T08:21:29;103101.34;;;19.99;83.28
7407;BME280;3745;56.964;24.128;2023-05-20T08:23:54;103104.97;;;20.14;83.58
7407;BME280;3745;56.964;24.128;2023-05-20T08:26:20;103112.16;;;20.42;81.60
7407;BME280;3745;56.964;24.128;2023-05-20T08:28:46;103083.00;;;20.43;78.40
7407;BME280;3745;56.964;24.128;2023-05-20T08:31:13;103072.63;;;20.37;76.73
7407;BME280;3745;56.964;24.128;2023-05-20T08:33:39;103051.81;;;20.16;77.52
7407;BME280;3745;56.964;24.128;2023-05-20T08:36:05;103085.47;;;20.34;78.04
7407;BME280;3745;56.964;24.128;2023-05-20T08:38:32;103103.56;;;20.43;77.80
7407;BME280;3745;56.964;24.128;2023-05-20T08:40:58;103101.88;;;20.42;74.75
7407;BME280;3745;56.964;24.128;2023-05-20T08:43:24;103101.13;;;20.57;74.61
7407;BME280;3745;56.964;24.128;2023-05-20T08:45:50;103101.94;;;20.51;74.40
7407;BME280;3745;56.964;24.128;2023-05-20T08:48:22;103077.16;;;20.61;75.51
7407;BME280;3745;56.964;24.128;2023-05-20T08:50:50;103109.84;;;20.74;75.48
7407;BME280;3745;56.964;24.128;2023-05-20T08:53:16;103106.44;;;20.75;76.21
7407;BME280;3745;56.964;24.128;2023-05-20T08:55:45;102969.09;;;19.70;75.35
7407;BME280;3745;56.964;24.128;2023-05-20T08:58:13;103071.00;;;20.42;76.08
7407;BME280;3745;56.964;24.128;2023-05-20T09:00:40;103075.44;;;20.60;74.45
7407;BME280;3745;56.964;24.128;2023-05-20T09:03:06;103051.50;;;20.70;73.21
7407;BME280;3745;56.964;24.128;2023-05-20T09:05:32;103092.03;;;20.96;71.45
7407;BME280;3745;56.964;24.128;2023-05-20T09:08:11;103096.31;;;20.94;71.38
7407;BME280;3745;56.964;24.128;2023-05-20T09:10:38;103089.28;;;20.77;73.36
7407;BME280;3745;56.964;24.128;2023-05-20T09:13:05;103095.25;;;20.71;73.62
7407;BME280;3745;56.964;24.128;2023-05-20T09:15:32;103095.28;;;20.74;73.16
7407;BME280;3745;56.964;24.128;2023-05-20T09:18:06;103050.66;;;20.72;73.21
7407;BME280;3745;56.964;24.128;2023-05-20T09:20:36;103097.19;;;20.99;72.64
7407;BME280;3745;56.964;24.128;2023-05-20T09:23:07;103088.59;;;20.97;72.01
7407;BME280;3745;56.964;24.128;2023-05-20T09:25:34;103083.47;;;21.00;71.72
7407;BME280;3745;56.964;24.128;2023-05-20T09:28:03;103024.91;;;20.69;72.64
7407;BME280;3745;56.964;24.128;2023-05-20T09:30:28;103064.63;;;21.07;70.58
7407;BME280;3745;56.964;24.128;2023-05-20T09:32:55;103043.81;;;20.77;70.62
7407;BME280;3745;56.964;24.128;2023-05-20T09:35:22;103075.78;;;21.08;70.97
7407;BME280;3745;56.964;24.128;2023-05-20T09:37:55;103061.16;;;21.02;72.82
7407;BME280;3745;56.964;24.128;2023-05-20T09:40:28;103059.59;;;21.23;70.58
7407;BME280;3745;56.964;24.128;2023-05-20T09:42:57;103082.94;;;21.54;71.50
7407;BME280;3745;56.964;24.128;2023-05-20T09:45:24;103068.38;;;21.64;68.77
7407;BME280;3745;56.964;24.128;2023-05-20T09:47:52;103075.31;;;21.77;67.17
7407;BME280;3745;56.964;24.128;2023-05-20T09:50:19;103071.94;;;21.93;67.33
7407;BME280;3745;56.964;24.128;2023-05-20T09:52:49;103071.06;;;21.87;66.98
7407;BME280;3745;56.964;24.128;2023-05-20T09:55:16;103047.88;;;21.91;67.42
7407;BME280;3745;56.964;24.128;2023-05-20T09:57:43;103059.97;;;22.07;65.39
7407;BME280;3745;56.964;24.128;2023-05-20T10:00:09;103017.66;;;21.49;67.99
7407;BME280;3745;56.964;24.128;2023-05-20T10:02:41;103070.03;;;21.47;67.37
7407;BME280;3745;56.964;24.128;2023-05-20T10:05:13;103071.00;;;21.69;66.41
7407;BME280;3745;56.964;24.128;2023-05-20T10:07:48;103071.03;;;21.75;66.26
7407;BME280;3745;56.964;24.128;2023-05-20T10:13:19;103056.38;;;21.69;65.50
7407;BME280;3745;56.964;24.128;2023-05-20T10:21:21;103061.56;;;21.84;66.53
7407;BME280;3745;56.964;24.128;2023-05-20T10:23:49;103054.81;;;22.13;64.67
7407;BME280;3745;56.964;24.128;2023-05-20T10:26:15;103055.56;;;21.75;65.42
7407;BME280;3745;56.964;24.128;2023-05-20T10:28:41;103044.38;;;21.71;65.82
7407;BME280;3745;56.964;24.128;2023-05-20T10:31:19;103023.72;;;21.65;67.66
7407;BME280;3745;56.964;24.128;2023-05-20T10:33:46;103048.75;;;21.89;66.78
7407;BME280;3745;56.964;24.128;2023-05-20T10:36:28;103019.53;;;22.05;64.77
7407;BME280;3745;56.964;24.128;2023-05-20T10:38:57;103035.91;;;22.45;64.70
7407;BME280;3745;56.964;24.128;2023-05-20T10:41:27;103018.59;;;21.77;65.45
7407;BME280;3745;56.964;24.128;2023-05-20T10:44:05;103036.72;;;22.06;63.70
7407;BME280;3745;56.964;24.128;2023-05-20T10:46:32;103037.59;;;22.12;64.02
7407;BME280;3745;56.964;24.128;2023-05-20T10:48:58;102944.63;;;21.55;67.22
7407;BME280;3745;56.964;24.128;2023-05-20T10:51:24;103034.19;;;22.32;66.48
7407;BME280;3745;56.964;24.128;2023-05-20T10:53:54;103037.63;;;22.49;66.74
7407;BME280;3745;56.964;24.128;2023-05-20T10:56:25;103027.31;;;22.64;66.77
7407;BME280;3745;56.964;24.128;2023-05-20T10:58:52;103010.97;;;22.39;68.72
7407;BME280;3745;56.964;24.128;2023-05-20T11:01:23;102999.78;;;22.36;68.27
7407;BME280;3745;56.964;24.128;2023-05-20T11:03:50;103008.38;;;22.20;68.30
7407;BME280;3745;56.964;24.128;2023-05-20T11:06:17;103010.09;;;21.96;71.86
7407;BME280;3745;56.964;24.128;2023-05-20T11:08:45;103027.25;;;22.00;73.88
7407;BME280;3745;56.964;24.128;2023-05-20T11:11:12;103021.16;;;21.71;76.55
7407;BME280;3745;56.964;24.128;2023-05-20T11:13:39;103025.38;;;21.57;76.31
7407;BME280;3745;56.964;24.128;2023-05-20T11:16:05;103006.44;;;21.40;75.13
7407;BME280;3745;56.964;24.128;2023-05-20T11:18:31;102974.59;;;21.26;74.96
7407;BME280;3745;56.964;24.128;2023-05-20T11:20:57;103001.34;;;21.55;76.52
7407;BME280;3745;56.964;24.128;2023-05-20T11:23:28;103014.19;;;21.46;76.59
7407;BME280;3745;56.964;24.128;2023-05-20T11:25:55;103008.97;;;21.35;75.35
7407;BME280;3745;56.964;24.128;2023-05-20T11:28:22;102997.78;;;21.26;78.77
7407;BME280;3745;56.964;24.128;2023-05-20T11:30:50;102979.63;;;21.06;77.80
7407;BME280;3745;56.964;24.128;2023-05-20T11:33:17;102999.53;;;21.30;77.43
7407;BME280;3745;56.964;24.128;2023-05-20T11:35:51;102999.44;;;21.12;77.59
7407;BME280;3745;56.964;24.128;2023-05-20T11:38:20;102987.31;;;20.98;79.00
7407;BME280;3745;56.964;24.128;2023-05-20T11:40:53;102973.47;;;20.78;79.08
7407;BME280;3745;56.964;24.128;2023-05-20T11:43:19;102928.69;;;20.55;76.77
7407;BME280;3745;56.964;24.128;2023-05-20T11:45:57;102987.31;;;21.01;78.02
7407;BME280;3745;56.964;24.128;2023-05-20T11:48:26;102987.31;;;21.01;75.16
7407;BME280;3745;56.964;24.128;2023-05-20T11:50:55;102987.31;;;21.01;75.07
7407;BME280;3745;56.964;24.128;2023-05-20T11:53:22;102951.97;;;20.72;75.67
7407;BME280;3745;56.964;24.128;2023-05-20T11:55:54;102968.44;;;20.96;74.83
7407;BME280;3745;56.964;24.128;2023-05-20T11:58:27;102984.72;;;20.91;74.81
7407;BME280;3745;56.964;24.128;2023-05-20T12:00:53;102964.84;;;20.70;75.77
7407;BME280;3745;56.964;24.128;2023-05-20T12:03:19;102957.94;;;20.63;75.27
7407;BME280;3745;56.964;24.128;2023-05-20T12:05:46;102973.41;;;20.66;76.11
7407;BME280;3745;56.964;24.128;2023-05-20T12:08:12;102991.34;;;20.57;76.58
7407;BME280;3745;56.964;24.128;2023-05-20T12:10:38;102924.00;;;20.01;75.74
7407;BME280;3745;56.964;24.128;2023-05-20T12:13:04;102985.03;;;20.25;76.80
7407;BME280;3745;56.964;24.128;2023-05-20T12:15:39;102986.72;;;20.20;78.37
7407;BME280;3745;56.964;24.128;2023-05-20T12:18:05;102983.34;;;20.24;76.51
7407;BME280;3745;56.964;24.128;2023-05-20T12:20:30;102976.47;;;20.23;78.56
7407;BME280;3745;56.964;24.128;2023-05-20T12:23:01;102943.00;;;20.20;80.48
7407;BME280;3745;56.964;24.128;2023-05-20T12:25:27;102984.34;;;20.36;80.92
7407;BME280;3745;56.964;24.128;2023-05-20T12:27:54;102983.41;;;20.31;79.15
7407;BME280;3745;56.964;24.128;2023-05-20T12:30:21;102955.75;;;20.08;78.52
7407;BME280;3745;56.964;24.128;2023-05-20T12:32:48;102974.75;;;20.25;79.73
7407;BME280;3745;56.964;24.128;2023-05-20T12:35:15;102974.72;;;20.22;80.20
7407;BME280;3745;56.964;24.128;2023-05-20T12:37:42;102973.03;;;20.21;80.19
7407;BME280;3745;56.964;24.128;2023-05-20T12:40:09;102941.16;;;20.03;81.72
7407;BME280;3745;56.964;24.128;2023-05-20T12:42:38;102968.66;;;20.15;79.93
7407;BME280;3745;56.964;24.128;2023-05-20T12:45:05;102925.50;;;19.79;82.02
7407;BME280;3745;56.964;24.128;2023-05-20T12:47:31;102949.63;;;19.93;81.52
7407;BME280;3745;56.964;24.128;2023-05-20T12:49:57;102976.34;;;20.11;81.53
7407;BME280;3745;56.964;24.128;2023-05-20T12:52:24;102971.16;;;20.05;82.74
7407;BME280;3745;56.964;24.128;2023-05-20T12:54:50;102933.25;;;19.82;83.46
7407;BME280;3745;56.964;24.128;2023-05-20T12:57:16;102953.88;;;19.91;82.24
7407;BME280;3745;56.964;24.128;2023-05-20T12:59:43;102959.09;;;19.97;83.41
7407;BME280;3745;56.964;24.128;2023-05-20T13:02:09;102910.78;;;19.62;82.41
7407;BME280;3745;56.964;24.128;2023-05-20T13:04:35;102957.28;;;19.90;81.57